Time;durP1;ratioP1;P1;durP2;ratioP2;P2;SDS_P1;SDS_P2;PMS_P1;PMS_P2;Temp;Humidity;BMP_temperature;BMP_pressure;BME280_temperature;BME280_humidity;BME280_pressure;Samples;Min_cycle;Max_cycle;Signal;HPM_P1;HPM_P2
2022/07/19 00:00:09;;;;;;;5.55;4.87;;;;;;;18.57;61.48;100860.05;1705124;84;25657;-69
2022/07/19 00:02:39;;;;;;;6.53;4.55;;;;;;;18.58;61.76;100862.24;1705166;84;25422;-70
2022/07/19 00:05:08;;;;;;;4.83;4.33;;;;;;;18.57;61.79;100857.90;1705455;84;25460;-69
2022/07/19 00:07:35;;;;;;;5.97;5.10;;;;;;;18.58;62.00;100867.14;1705291;84;28032;-68
2022/07/19 00:10:04;;;;;;;5.40;4.45;;;;;;;18.57;62.10;100868.27;1705062;84;25652;-68
2022/07/19 00:12:30;;;;;;;7.42;4.83;;;;;;;18.56;62.05;100865.88;1705304;84;25633;-68
2022/07/19 00:14:56;;;;;;;7.53;5.03;;;;;;;18.55;62.27;100861.56;1705119;84;26280;-68
2022/07/19 00:17:22;;;;;;;9.55;6.12;;;;;;;18.55;62.40;100857.45;1705234;84;25572;-68
2022/07/19 00:19:48;;;;;;;10.25;5.85;;;;;;;18.53;62.47;100853.70;1705153;84;27342;-68
2022/07/19 00:22:17;;;;;;;8.00;4.67;;;;;;;18.54;62.61;100850.37;1705088;84;25588;-68
2022/07/19 00:24:44;;;;;;;6.85;3.92;;;;;;;18.55;62.57;100850.61;1705319;84;25619;-69
2022/07/19 00:27:10;;;;;;;7.78;4.97;;;;;;;18.52;62.43;100846.61;1705088;84;25663;-68
2022/07/19 00:29:36;;;;;;;5.25;4.72;;;;;;;18.51;62.67;100845.03;1705221;84;25583;-68
2022/07/19 00:32:03;;;;;;;5.65;5.05;;;;;;;18.49;62.64;100848.70;1705204;84;27295;-69
2022/07/19 00:34:29;;;;;;;7.37;5.22;;;;;;;18.46;62.72;100845.29;1705105;84;25538;-68
2022/07/19 00:36:56;;;;;;;6.22;5.10;;;;;;;18.44;62.74;100836.63;1705173;84;25513;-68
2022/07/19 00:39:22;;;;;;;8.53;5.33;;;;;;;18.43;62.72;100832.28;1705082;84;25641;-68
2022/07/19 00:41:48;;;;;;;9.73;6.15;;;;;;;18.42;62.93;100834.79;1705245;84;25624;-68
2022/07/19 00:44:14;;;;;;;8.35;5.00;;;;;;;18.40;63.17;100837.08;1705163;84;28007;-69
2022/07/19 00:46:41;;;;;;;5.75;5.15;;;;;;;18.39;63.22;100836.30;1705051;84;25444;-68
2022/07/19 00:49:07;;;;;;;9.60;5.50;;;;;;;18.38;63.15;100831.95;1705195;84;25556;-68
2022/07/19 00:51:38;;;;;;;7.20;5.50;;;;;;;18.39;63.31;100839.59;1748738;82;25793;-68
2022/07/19 00:54:04;;;;;;;7.25;4.80;;;;;;;18.38;63.57;100849.75;1748782;82;25405;-69
2022/07/19 00:56:37;;;;;;;6.87;5.05;;;;;;;18.39;63.45;100854.65;1748745;82;27403;-68
2022/07/19 00:59:04;;;;;;;8.35;5.20;;;;;;;18.39;63.60;100850.55;1747696;82;25393;-68
2022/07/19 01:01:32;;;;;;;6.80;5.42;;;;;;;18.38;63.85;100838.80;1748770;82;25383;-68
2022/07/19 01:03:58;;;;;;;6.72;5.50;;;;;;;18.37;63.94;100839.96;1748672;82;25639;-69
2022/07/19 01:06:26;;;;;;;7.17;5.22;;;;;;;18.36;64.03;100841.68;1748789;82;25468;-69
2022/07/19 01:08:52;;;;;;;5.80;4.83;;;;;;;18.37;64.02;100835.04;1748764;82;28002;-69
2022/07/19 01:11:19;;;;;;;6.28;4.92;;;;;;;18.36;64.03;100835.62;1748635;82;25612;-68
2022/07/19 01:13:46;;;;;;;8.38;5.03;;;;;;;18.37;64.22;100834.48;1748727;82;25271;-68
2022/07/19 01:16:12;;;;;;;7.42;5.40;;;;;;;18.38;64.41;100832.53;1717229;82;26321;-68
2022/07/19 01:18:39;;;;;;;7.35;5.17;;;;;;;18.39;64.54;100831.38;1748789;82;25486;-69
2022/07/19 01:21:06;;;;;;;7.05;4.75;;;;;;;18.38;64.50;100822.95;1748696;82;27502;-69
2022/07/19 01:23:32;;;;;;;8.78;4.90;;;;;;;18.38;64.59;100822.95;1748637;82;25786;-69
2022/07/19 01:25:58;;;;;;;10.65;5.03;;;;;;;18.37;64.63;100824.91;1748740;82;25615;-68
2022/07/19 01:28:24;;;;;;;8.40;5.22;;;;;;;18.38;64.74;100825.11;1748711;82;25648;-68
2022/07/19 01:30:50;;;;;;;7.33;5.40;;;;;;;18.38;64.64;100818.27;1748743;82;25602;-70
2022/07/19 01:33:17;;;;;;;8.03;5.22;;;;;;;18.37;64.73;100819.42;1748744;82;27659;-70
2022/07/19 01:35:43;;;;;;;5.33;4.83;;;;;;;18.38;64.99;100821.58;1748615;82;25407;-69
2022/07/19 01:38:10;;;;;;;8.65;5.50;;;;;;;18.38;64.94;100814.73;1748702;82;25620;-69
2022/07/19 01:40:36;;;;;;;7.60;5.20;;;;;;;18.36;64.77;100819.77;1748717;82;26374;-69
2022/07/19 01:43:02;;;;;;;6.47;4.92;;;;;;;18.35;64.56;100820.32;1748748;82;25425;-72
2022/07/19 01:45:28;;;;;;;5.67;4.45;;;;;;;18.33;64.51;100814.98;1748738;82;27963;-69
2022/07/19 01:47:55;;;;;;;11.00;4.85;;;;;;;18.31;64.66;100820.02;1748687;82;25615;-70
2022/07/19 01:50:21;;;;;;;7.67;5.50;;;;;;;18.25;64.58;100815.34;1746715;82;25487;-69
2022/07/19 01:52:48;;;;;;;7.20;5.35;;;;;;;18.21;64.72;100820.72;1742892;82;25716;-69
2022/07/19 01:55:14;;;;;;;7.40;5.22;;;;;;;18.16;64.90;100827.02;1742956;82;25435;-68
2022/07/19 01:57:41;;;;;;;6.60;5.12;;;;;;;18.11;64.85;100829.43;1742845;82;27388;-68
2022/07/19 02:00:09;;;;;;;8.25;4.65;;;;;;;18.09;64.97;100830.35;1742824;82;27290;-68
2022/07/19 02:02:35;;;;;;;6.65;5.40;;;;;;;18.07;65.02;100832.64;1742910;82;25639;-68
2022/07/19 02:05:01;;;;;;;9.65;5.17;;;;;;;18.06;65.42;100826.94;1742848;82;25389;-68
2022/07/19 02:07:27;;;;;;;8.53;6.20;;;;;;;18.03;65.24;100826.25;1742850;82;25588;-68
2022/07/19 02:09:57;;;;;;;6.42;5.25;;;;;;;18.01;65.40;100826.59;1742833;82;27359;-68
2022/07/19 02:12:24;;;;;;;9.25;5.35;;;;;;;18.01;65.42;100829.91;1742750;82;25445;-68
2022/07/19 02:14:52;;;;;;;9.60;5.58;;;;;;;18.01;65.40;100827.97;1742880;82;25565;-68
2022/07/19 02:17:18;;;;;;;8.98;5.67;;;;;;;18.02;65.47;100831.52;1742854;82;25635;-68
2022/07/19 02:19:44;;;;;;;9.13;5.37;;;;;;;18.02;65.48;100821.94;1742860;82;26793;-68
2022/07/19 02:22:10;;;;;;;8.58;5.45;;;;;;;18.01;65.51;100817.59;1742906;82;29527;-68
2022/07/19 02:24:38;;;;;;;10.28;5.80;;;;;;;18.02;65.49;100821.94;1743031;82;25441;-68
2022/07/19 02:27:04;;;;;;;6.62;5.40;;;;;;;18.01;65.78;100817.59;1743042;82;25461;-69
2022/07/19 02:29:30;;;;;;;8.05;5.30;;;;;;;17.98;65.79;100820.47;1742962;82;25624;-68
2022/07/19 02:31:56;;;;;;;6.20;5.58;;;;;;;17.96;65.80;100821.95;1743039;82;25671;-68
2022/07/19 02:34:22;;;;;;;8.50;6.42;;;;;;;17.94;65.81;100821.50;1743039;82;27339;-68
2022/07/19 02:36:48;;;;;;;7.40;5.65;;;;;;;17.92;65.90;100817.74;1742936;82;25555;-68
2022/07/19 02:39:15;;;;;;;9.20;5.60;;;;;;;17.90;66.07;100819.45;1709539;84;25596;-68
2022/07/19 02:41:41;;;;;;;7.42;5.53;;;;;;;17.89;65.99;100819.80;1658965;85;25606;-68
2022/07/19 02:44:07;;;;;;;9.08;6.95;;;;;;;17.87;66.15;100818.77;1717482;83;25538;-68
2022/07/19 02:46:34;;;;;;;8.78;7.08;;;;;;;17.86;66.68;100818.56;1679546;85;28112;-68
2022/07/19 02:49:01;;;;;;;11.43;6.25;;;;;;;17.86;66.79;100820.45;1717331;83;25499;-68
2022/07/19 02:51:27;;;;;;;10.98;7.33;;;;;;;17.85;66.81;100820.23;1659422;85;25468;-68
2022/07/19 02:53:53;;;;;;;8.33;6.40;;;;;;;17.85;67.07;100822.40;1705460;84;25629;-68
2022/07/19 02:56:19;;;;;;;9.13;5.87;;;;;;;17.86;67.08;100824.03;1705495;84;25590;-68
2022/07/19 02:58:45;;;;;;;8.45;6.37;;;;;;;17.87;67.28;100820.14;1705511;84;27511;-68
2022/07/19 03:01:11;;;;;;;9.05;6.40;;;;;;;17.86;67.24;100814.98;1705349;83;25735;-68
2022/07/19 03:03:43;;;;;;;7.67;5.87;;;;;;;17.86;67.22;100816.34;1705492;84;25636;-68
2022/07/19 03:06:11;;;;;;;10.00;6.47;;;;;;;17.86;67.33;100824.03;1705489;83;26271;-69
2022/07/19 03:08:38;;;;;;;10.15;6.50;;;;;;;17.85;67.48;100819.66;1705567;83;25638;-68
2022/07/19 03:11:05;;;;;;;12.98;6.65;;;;;;;17.85;67.67;100818.30;1705496;84;27333;-68
2022/07/19 03:13:31;;;;;;;7.33;6.42;;;;;;;17.85;67.51;100823.77;1705387;84;25433;-68
2022/07/19 03:15:57;;;;;;;12.80;7.45;;;;;;;17.85;67.62;100827.87;1705491;83;25554;-68
2022/07/19 03:18:23;;;;;;;11.80;7.00;;;;;;;17.83;67.42;100824.69;1705450;83;25587;-68
2022/07/19 03:20:50;;;;;;;10.63;6.62;;;;;;;17.82;67.30;100834.02;1705511;83;26981;-68
2022/07/19 03:23:16;;;;;;;7.60;6.03;;;;;;;17.81;67.40;100829.72;1705482;83;28098;-68
2022/07/19 03:25:41;;;;;;;9.83;6.40;;;;;;;17.83;67.50;100832.89;1689143;84;25490;-68
2022/07/19 03:28:08;;;;;;;13.55;7.70;;;;;;;17.84;67.65;100835.05;1705427;83;25467;-68
2022/07/19 03:30:34;;;;;;;11.20;7.80;;;;;;;17.83;67.60;100834.27;1705428;83;25718;-68
2022/07/19 03:33:00;;;;;;;11.18;7.30;;;;;;;17.83;67.70;100841.69;1705497;84;25625;-69
2022/07/19 03:35:26;;;;;;;12.05;7.50;;;;;;;17.80;67.60;100839.05;1705461;83;27395;-68
2022/07/19 03:37:52;;;;;;;13.15;7.87;;;;;;;17.78;67.83;100830.39;1705405;83;25483;-68
2022/07/19 03:40:19;;;;;;;12.37;7.40;;;;;;;17.76;67.59;100834.05;1705438;83;25699;-68
2022/07/19 03:42:45;;;;;;;12.73;7.58;;;;;;;17.76;67.66;100831.87;1705432;83;25638;-68
2022/07/19 03:45:11;;;;;;;12.15;7.72;;;;;;;17.76;67.80;100839.53;1705481;83;25427;-68
2022/07/19 03:47:37;;;;;;;12.73;7.90;;;;;;;17.76;67.80;100838.16;1705481;83;27323;-69
2022/07/19 03:50:06;;;;;;;10.53;7.62;;;;;;;17.76;67.76;100838.16;1705381;83;25695;-68
2022/07/19 03:52:32;;;;;;;11.30;7.77;;;;;;;17.74;67.86;100830.29;1741225;82;25603;-69
2022/07/19 03:54:58;;;;;;;10.88;7.65;;;;;;;17.76;67.86;100825.84;1742923;82;26322;-68
2022/07/19 03:57:25;;;;;;;9.80;7.35;;;;;;;17.77;67.89;100833.48;1743020;82;25639;-69
2022/07/19 03:59:51;;;;;;;13.62;7.70;;;;;;;17.77;67.89;100839.73;1742936;82;27340;-68
2022/07/19 04:02:17;;;;;;;10.13;7.72;;;;;;;17.77;67.78;100826.05;1742877;82;25702;-68
2022/07/19 04:04:43;;;;;;;11.43;8.25;;;;;;;17.79;67.68;100829.23;1742951;82;25411;-68
2022/07/19 04:07:09;;;;;;;10.82;7.40;;;;;;;17.82;67.76;100827.77;1742944;82;25612;-68
2022/07/19 04:09:35;;;;;;;12.73;7.58;;;;;;;17.82;67.88;100829.13;1743012;82;25536;-69
2022/07/19 04:12:02;;;;;;;11.75;7.33;;;;;;;17.83;67.91;100830.73;1743035;82;28020;-68
2022/07/19 04:14:28;;;;;;;9.63;7.45;;;;;;;17.83;67.91;100825.27;1742875;82;25545;-68
2022/07/19 04:16:54;;;;;;;8.55;7.20;;;;;;;17.86;67.86;100821.81;1742916;82;25390;-68
2022/07/19 04:19:21;;;;;;;9.88;7.20;;;;;;;17.90;67.91;100818.66;1742921;82;25632;-68
2022/07/19 04:21:47;;;;;;;10.58;7.60;;;;;;;17.92;68.03;100811.69;1742948;82;25638;-68
2022/07/19 04:24:13;;;;;;;10.63;7.40;;;;;;;17.96;67.93;100812.37;1742892;82;27291;-69
2022/07/19 04:26:38;;;;;;;15.28;7.95;;;;;;;17.99;67.99;100812.47;1742805;82;25720;-69
2022/07/19 04:29:05;;;;;;;18.55;7.70;;;;;;;18.01;67.79;100813.49;1742950;82;25380;-68
2022/07/19 04:31:31;;;;;;;14.38;8.00;;;;;;;18.05;67.79;100810.30;1742902;82;25711;-69
2022/07/19 04:33:57;;;;;;;10.08;7.78;;;;;;;18.09;67.92;100808.45;1742954;82;25402;-68
2022/07/19 04:36:23;;;;;;;14.60;8.38;;;;;;;18.17;68.01;100803.99;1742939;82;27408;-68
2022/07/19 04:38:50;;;;;;;13.53;7.87;;;;;;;18.20;68.15;100797.25;1742846;82;25740;-68
2022/07/19 04:41:16;;;;;;;11.43;7.80;;;;;;;18.31;67.95;100809.86;1742946;82;25599;-69
2022/07/19 04:43:42;;;;;;;15.63;7.65;;;;;;;18.37;67.72;100810.39;1742965;82;25623;-69
2022/07/19 04:46:08;;;;;;;11.53;7.35;;;;;;;18.42;67.83;100806.03;1742926;82;25619;-69
2022/07/19 04:48:34;;;;;;;11.30;7.12;;;;;;;18.47;67.67;100804.41;1742905;82;28088;-69
2022/07/19 04:51:00;;;;;;;10.20;7.50;;;;;;;18.54;67.58;100815.58;1719648;82;25622;-69
2022/07/19 04:53:26;;;;;;;10.90;7.05;;;;;;;18.59;67.58;100809.84;1742945;82;25608;-68
2022/07/19 04:55:52;;;;;;;23.60;15.23;;;;;;;18.70;67.46;100813.44;1742889;82;25621;-68
2022/07/19 04:58:18;;;;;;;11.73;7.83;;;;;;;18.79;67.61;100813.48;1742953;82;25395;-68
2022/07/19 05:00:44;;;;;;;10.30;7.75;;;;;;;18.90;67.18;100811.06;1742881;82;28123;-69
2022/07/19 05:03:11;;;;;;;10.50;7.00;;;;;;;18.99;66.93;100810.88;1742814;82;25668;-68
2022/07/19 05:05:37;;;;;;;7.87;6.95;;;;;;;19.07;67.11;100818.14;1742951;82;25477;-68
2022/07/19 05:08:04;;;;;;;10.35;7.12;;;;;;;19.18;67.03;100822.50;1742866;82;26407;-68
2022/07/19 05:10:30;;;;;;;13.30;8.60;;;;;;;19.26;66.83;100827.02;1742948;82;25465;-69
2022/07/19 05:12:56;;;;;;;8.63;6.87;;;;;;;19.38;66.75;100821.42;1742904;82;28102;-69
2022/07/19 05:15:22;;;;;;;11.33;7.20;;;;;;;19.46;66.21;100818.28;1742868;82;25533;-68
2022/07/19 05:17:48;;;;;;;12.93;7.65;;;;;;;19.53;65.86;100824.48;1742904;82;25554;-69
2022/07/19 05:20:16;;;;;;;11.35;7.95;;;;;;;19.60;65.60;100820.55;1742829;82;25724;-69
2022/07/19 05:22:43;;;;;;;13.25;7.65;;;;;;;19.66;65.17;100820.48;1742900;82;25481;-69
2022/07/19 05:25:10;;;;;;;10.32;7.28;;;;;;;19.70;65.34;100817.25;1742880;82;27353;-68
2022/07/19 05:27:37;;;;;;;13.18;8.45;;;;;;;19.79;65.20;100825.31;1709360;84;25761;-69
2022/07/19 05:30:06;;;;;;;10.78;7.37;;;;;;;19.85;65.12;100823.07;1679457;85;25644;-69
2022/07/19 05:32:33;;;;;;;11.48;7.70;;;;;;;19.99;65.19;100815.71;1687067;84;25670;-70
2022/07/19 05:34:59;;;;;;;12.85;7.67;;;;;;;20.08;64.90;100823.17;1717361;83;25622;-70
2022/07/19 05:37:25;;;;;;;10.98;8.03;;;;;;;20.14;64.71;100807.98;1679410;85;28055;-70
2022/07/19 05:39:51;;;;;;;10.68;7.97;;;;;;;20.20;64.23;100808.51;1742810;82;25464;-70
2022/07/19 05:42:17;;;;;;;12.15;7.50;;;;;;;20.20;64.13;100803.02;1742840;82;25389;-70
2022/07/19 05:44:44;;;;;;;11.48;7.05;;;;;;;20.21;63.78;100807.34;1742850;82;26200;-69
2022/07/19 05:47:10;;;;;;;9.80;7.55;;;;;;;20.23;63.85;100801.71;1742924;82;25606;-69
2022/07/19 05:49:36;;;;;;;13.75;7.60;;;;;;;20.23;63.62;100808.58;1742898;82;27327;-70
2022/07/19 05:52:03;;;;;;;11.60;8.23;;;;;;;20.26;63.61;100818.84;1730193;82;25893;-70
2022/07/19 05:54:29;;;;;;;15.50;8.63;;;;;;;20.33;63.92;100817.60;1715549;83;25577;-70
2022/07/19 05:56:56;;;;;;;14.10;7.55;;;;;;;20.42;64.00;100817.38;1715519;82;25695;-70
2022/07/19 05:59:22;;;;;;;12.43;7.30;;;;;;;20.52;63.38;100818.16;1702852;84;25559;-70
2022/07/19 06:01:49;;;;;;;10.63;7.33;;;;;;;20.61;63.61;100812.42;1715543;83;27868;-70
2022/07/19 06:04:16;;;;;;;13.72;7.25;;;;;;;20.77;63.91;100812.36;1715473;83;25422;-70
2022/07/19 06:06:43;;;;;;;14.93;7.28;;;;;;;20.98;63.88;100811.92;1715554;83;25648;-67
2022/07/19 06:09:11;;;;;;;10.75;6.67;;;;;;;21.23;63.24;100819.22;1715502;83;25623;-68
2022/07/19 06:11:40;;;;;;;12.25;6.95;;;;;;;21.42;62.42;100825.80;1715828;82;25559;-69
2022/07/19 06:14:12;;;;;;;12.55;7.03;;;;;;;21.55;61.27;100825.80;1715667;83;27269;-69
2022/07/19 06:16:38;;;;;;;;;;;;;;;21.64;60.81;100823.59;1705113;84;25603;-69
2022/07/19 06:19:05;;;;;;;10.23;6.63;;;;;;;21.73;60.09;100828.81;1673312;85;25613;-69
2022/07/19 06:21:33;;;;;;;12.23;6.90;;;;;;;21.76;60.16;100824.51;1702780;84;25793;-69
2022/07/19 06:24:00;;;;;;;9.80;6.62;;;;;;;21.86;60.18;100830.74;1715580;83;25478;-69
2022/07/19 06:26:26;;;;;;;12.75;7.10;;;;;;;21.93;60.05;100823.98;1702800;84;27423;-68
2022/07/19 06:28:54;;;;;;;13.32;6.53;;;;;;;22.08;59.64;100824.93;1715487;82;25601;-68
2022/07/19 06:31:22;;;;;;;11.25;6.12;;;;;;;22.21;59.97;100821.36;1715571;83;25581;-69
2022/07/19 06:33:50;;;;;;;10.45;6.65;;;;;;;22.45;59.99;100827.56;1715522;83;25617;-69
2022/07/19 06:36:18;;;;;;;10.48;5.75;;;;;;;22.67;59.70;100822.47;1679139;84;25483;-69
2022/07/19 06:38:45;;;;;;;10.53;6.20;;;;;;;22.89;59.52;100824.84;1715515;83;27340;-69
2022/07/19 06:41:12;;;;;;;9.65;5.60;;;;;;;23.17;59.14;100822.73;1715486;83;25649;-69
2022/07/19 06:43:40;;;;;;;9.20;5.80;;;;;;;23.53;59.06;100822.98;1715538;83;25400;-69
2022/07/19 06:46:07;;;;;;;9.90;6.05;;;;;;;23.81;57.61;100827.33;1715488;83;25706;-69
2022/07/19 06:48:33;;;;;;;11.50;6.12;;;;;;;24.06;57.30;100832.19;1715547;83;25490;-69
2022/07/19 06:50:59;;;;;;;14.78;9.85;;;;;;;24.28;56.16;100830.88;1715532;83;27308;-68
2022/07/19 06:53:28;;;;;;;8.93;6.00;;;;;;;24.42;55.61;100830.92;1704877;83;25547;-69
2022/07/19 06:55:54;;;;;;;11.22;5.50;;;;;;;24.59;55.16;100830.80;1705591;83;25548;-69
2022/07/19 06:58:20;;;;;;;7.85;5.45;;;;;;;24.65;53.70;100829.81;1705401;83;25669;-69
2022/07/19 07:00:48;;;;;;;10.28;5.85;;;;;;;24.54;53.01;100831.16;1705347;84;25438;-70
2022/07/19 07:03:17;;;;;;;13.50;5.47;;;;;;;24.47;52.92;100834.69;1705598;83;27324;-68
2022/07/19 07:05:43;;;;;;;11.10;5.10;;;;;;;24.42;52.90;100840.61;1705365;84;25703;-72
2022/07/19 07:08:09;;;;;;;10.03;5.15;;;;;;;24.37;52.74;100843.16;1705378;83;25410;-68
2022/07/19 07:10:35;;;;;;;7.62;5.50;;;;;;;24.39;52.89;100844.14;1705440;84;25589;-68
2022/07/19 07:13:02;;;;;;;8.45;5.58;;;;;;;24.42;52.61;100840.61;1705501;84;25471;-68
2022/07/19 07:15:29;;;;;;;11.05;5.65;;;;;;;24.36;52.68;100840.77;1705471;83;27403;-68
2022/07/19 07:17:55;;;;;;;8.90;5.10;;;;;;;24.36;52.42;100836.03;1705403;83;25523;-68
2022/07/19 07:20:21;;;;;;;10.72;5.50;;;;;;;24.27;52.16;100837.59;1705481;83;25422;-68
2022/07/19 07:22:47;;;;;;;14.60;5.22;;;;;;;24.20;52.03;100831.45;1705400;84;25729;-69
2022/07/19 07:25:13;;;;;;;10.88;4.95;;;;;;;24.15;51.95;100826.30;1705501;83;25564;-68
2022/07/19 07:27:40;;;;;;;14.40;5.83;;;;;;;24.06;51.61;100825.28;1705475;83;28129;-68
2022/07/19 07:30:08;;;;;;;9.03;5.03;;;;;;;23.95;51.86;100819.69;1705391;83;25550;-70
2022/07/19 07:32:34;;;;;;;12.03;5.92;;;;;;;23.89;52.28;100824.02;1705607;84;25404;-70
2022/07/19 07:35:00;;;;;;;10.45;5.92;;;;;;;24.00;52.64;100821.30;1705438;83;26305;-70
2022/07/19 07:37:27;;;;;;;10.30;5.17;;;;;;;24.12;52.78;100829.23;1705483;84;25383;-69
2022/07/19 07:39:55;;;;;;;8.05;5.42;;;;;;;24.32;53.15;100820.64;1705490;83;27301;-70
2022/07/19 07:42:24;;;;;;;10.32;5.47;;;;;;;24.54;52.98;100818.14;1705359;84;25650;-70
2022/07/19 07:44:51;;;;;;;13.45;5.50;;;;;;;24.63;52.04;100821.91;1705683;83;25452;-69
2022/07/19 07:47:18;;;;;;;7.70;4.97;;;;;;;24.67;51.05;100823.30;1705411;84;26399;-69
2022/07/19 07:49:44;;;;;;;10.75;4.97;;;;;;;24.64;50.95;100815.78;1705508;83;25592;-70
2022/07/19 07:52:10;;;;;;;8.28;5.10;;;;;;;24.60;50.79;100817.16;1712918;82;27332;-70
2022/07/19 07:54:38;;;;;;;10.78;5.33;;;;;;;24.71;51.80;100822.72;1742854;82;25528;-70
2022/07/19 07:57:04;;;;;;;14.28;5.20;;;;;;;24.79;50.68;100823.72;1742959;82;25485;-70
2022/07/19 07:59:30;;;;;;;7.95;5.53;;;;;;;24.82;50.29;100822.73;1742951;82;25698;-70
2022/07/19 08:01:57;;;;;;;11.33;5.22;;;;;;;24.94;50.61;100820.37;1742999;82;25400;-69
2022/07/19 08:04:23;;;;;;;8.78;4.67;;;;;;;25.14;50.43;100816.59;1742972;82;28138;-70
2022/07/19 08:06:49;;;;;;;6.22;4.67;;;;;;;25.35;49.93;100818.60;1709457;84;25589;-71
2022/07/19 08:09:15;;;;;;;9.98;4.33;;;;;;;25.53;49.78;100821.32;1681011;85;25596;-70
2022/07/19 08:11:41;;;;;;;7.37;4.40;;;;;;;25.66;49.47;100816.16;1717366;83;25628;-70
2022/07/19 08:14:07;;;;;;;11.33;4.35;;;;;;;25.73;48.99;100817.52;1679543;85;25644;-70
2022/07/19 08:16:33;;;;;;;10.82;5.12;;;;;;;25.80;48.90;100824.23;1717387;83;27404;-70
2022/07/19 08:18:59;;;;;;;8.55;4.53;;;;;;;25.86;48.60;100833.70;1680903;85;25595;-70
2022/07/19 08:21:26;;;;;;;10.88;4.75;;;;;;;25.85;48.74;100839.06;1717328;83;25595;-70
2022/07/19 08:23:53;;;;;;;10.25;4.30;;;;;;;25.86;48.51;100837.28;1679455;85;25849;-70
2022/07/19 08:26:20;;;;;;;11.55;5.12;;;;;;;25.91;48.72;100834.09;1717448;83;25565;-70
2022/07/19 08:28:47;;;;;;;12.40;5.83;;;;;;;26.04;48.62;100837.23;1679474;85;26916;-70
2022/07/19 08:31:15;;;;;;;9.95;5.85;;;;;;;26.13;48.56;100840.17;1742856;82;25654;-70
2022/07/19 08:33:42;;;;;;;20.70;8.83;;;;;;;26.21;47.99;100842.50;1742931;82;25416;-67
2022/07/19 08:36:12;;;;;;;12.65;4.85;;;;;;;26.23;47.71;100844.27;1742905;82;25607;-70
2022/07/19 08:38:39;;;;;;;8.85;4.97;;;;;;;26.31;47.60;100840.09;1743017;82;25476;-70
2022/07/19 08:41:07;;;;;;;12.75;5.00;;;;;;;26.39;47.46;100839.66;1742848;82;27336;-70
2022/07/19 08:43:34;;;;;;;10.32;4.17;;;;;;;26.49;47.39;100828.89;1742827;82;25465;-70
2022/07/19 08:46:03;;;;;;;8.28;4.33;;;;;;;26.64;46.77;100833.18;1742925;82;25585;-68
2022/07/19 08:48:35;;;;;;;14.15;4.53;;;;;;;26.75;46.94;100829.75;1742874;82;25673;-68
2022/07/19 08:51:05;;;;;;;11.97;5.03;;;;;;;26.92;46.67;100821.09;1742914;82;25459;-69
2022/07/19 08:53:37;;;;;;;10.65;4.47;;;;;;;27.15;45.96;100822.48;1726007;82;28111;-69
2022/07/19 08:57:56;;;;;;;11.70;4.50;;;;;;;27.30;45.22;100815.63;1702395;84;25493;-69
2022/07/19 08:58:30;;;;;;;8.93;4.78;;;;;;;27.42;44.46;100810.77;1713992;83;25465;-69
2022/07/19 09:00:56;;;;;;;6.78;4.08;;;;;;;27.48;44.49;100814.66;1715539;83;25754;-70
2022/07/19 09:03:22;;;;;;;6.85;4.30;;;;;;;27.71;44.56;100811.23;1702876;84;25447;-69
2022/07/19 09:05:54;;;;;;;10.40;4.45;;;;;;;27.94;43.96;100810.58;1715597;82;27967;-69
2022/07/19 09:08:20;;;;;;;8.60;4.12;;;;;;;28.24;43.89;100802.84;1713084;82;25655;-69
2022/07/19 09:13:36;;;;;;;8.88;3.70;;;;;;;28.76;41.47;100803.69;1715569;83;25692;-69
2022/07/19 09:16:04;;;;;;;5.90;3.05;;;;;;;29.46;41.80;100797.34;1715546;83;25446;-69
2022/07/19 09:18:37;;;;;;;10.55;3.90;;;;;;;30.20;40.97;100795.45;1715581;83;27441;-69
2022/07/19 09:21:06;;;;;;;4.95;3.12;;;;;;;30.87;41.18;100800.08;1715475;83;25425;-69
2022/07/19 09:23:34;;;;;;;9.98;3.42;;;;;;;31.81;38.91;100793.42;1715676;83;25591;-70
2022/07/19 09:26:05;;;;;;;6.80;3.10;;;;;;;32.12;37.06;100795.11;1702940;84;26375;-70
2022/07/19 09:28:34;;;;;;;6.08;3.40;;;;;;;32.39;37.06;100798.87;1715617;83;25497;-70
2022/07/19 09:31:02;;;;;;;7.12;3.22;;;;;;;32.68;35.63;100797.98;1715556;83;27310;-70
2022/07/19 09:33:32;;;;;;;6.70;3.00;;;;;;;32.87;35.33;100796.14;1715589;83;25617;-70
2022/07/19 09:36:06;;;;;;;6.17;3.30;;;;;;;33.26;34.62;100800.27;1715571;83;25561;-70
2022/07/19 09:38:36;;;;;;;8.28;3.75;;;;;;;33.50;34.26;100814.62;1715036;81;26401;-70
2022/07/19 09:41:15;;;;;;;5.90;3.60;;;;;;;33.80;33.92;100805.33;1715585;83;25481;-70
2022/07/19 09:43:54;;;;;;;7.37;2.92;;;;;;;34.30;33.68;100797.05;1715575;83;28062;-70
2022/07/19 09:46:44;;;;;;;6.90;3.50;;;;;;;34.79;32.75;100802.67;1702796;84;25550;-70
2022/07/19 09:49:15;;;;;;;4.60;2.55;;;;;;;35.22;32.61;100792.28;1715560;83;25584;-69
2022/07/19 09:51:49;;;;;;;5.10;2.55;;;;;;;35.59;31.57;100792.23;1702739;84;25675;-69
2022/07/19 09:54:19;;;;;;;4.67;2.47;;;;;;;35.79;31.26;100785.52;1736419;82;25458;-70
2022/07/19 09:56:50;;;;;;;7.15;2.95;;;;;;;36.21;29.70;100783.34;1742924;82;27396;-69
2022/07/19 09:59:18;;;;;;;6.30;3.50;;;;;;;36.35;29.40;100783.91;1742849;82;25569;-69
2022/07/19 10:01:47;;;;;;;5.60;3.20;;;;;;;36.29;28.23;100785.83;1743096;82;34855;-70
2022/07/19 10:04:18;;;;;;;5.83;2.60;;;;;;;35.90;28.41;100781.56;1742880;82;26321;-69
2022/07/19 10:06:46;;;;;;;7.78;2.75;;;;;;;35.85;28.93;100780.80;1742973;82;25449;-70
2022/07/19 10:09:16;;;;;;;7.10;3.20;;;;;;;36.13;28.69;100779.28;1743013;82;27328;-70
2022/07/19 10:11:43;;;;;;;5.45;2.85;;;;;;;36.23;28.18;100773.78;1742793;82;25558;-70
2022/07/19 10:14:11;;;;;;;5.42;2.67;;;;;;;36.27;28.37;100768.00;1743146;82;25493;-70
2022/07/19 10:17:10;;;;;;;9.30;3.20;;;;;;;36.61;27.80;100775.16;1742947;82;25778;-70
2022/07/19 10:19:46;;;;;;;5.67;3.20;;;;;;;36.48;26.61;100759.75;1742948;82;25560;-70
2022/07/19 10:22:17;;;;;;;6.28;2.85;;;;;;;36.20;27.52;100764.08;1742865;82;27583;-70
2022/07/19 10:24:53;;;;;;;5.65;2.70;;;;;;;36.14;26.73;100761.78;1742819;82;25579;-70
2022/07/19 10:27:28;;;;;;;6.37;2.52;;;;;;;35.96;26.39;100763.42;1742919;82;25442;-70
2022/07/19 10:30:05;;;;;;;5.83;2.80;;;;;;;35.91;26.88;100762.63;1727639;82;25632;-70
2022/07/19 10:32:32;;;;;;;6.95;3.25;;;;;;;35.80;26.75;100760.33;1670936;84;25694;-68
2022/07/19 10:35:23;;;;;;;6.78;3.02;;;;;;;35.85;27.17;100754.06;1675962;85;28059;-68
2022/07/19 10:38:03;;;;;;;5.30;3.20;;;;;;;36.21;27.30;100759.41;1675796;85;25663;-70
2022/07/19 10:40:56;;;;;;;10.23;3.52;;;;;;;36.26;25.23;100760.80;1676170;85;25530;-69
2022/07/19 10:43:21;;;;;;;8.43;4.30;;;;;;;35.60;25.48;100746.75;1675545;85;26170;-73
2022/07/19 10:46:01;;;;;;;6.95;3.20;;;;;;;35.55;26.63;100744.58;1653028;85;25460;-70
2022/07/19 10:48:49;;;;;;;7.25;3.12;;;;;;;35.68;25.98;100743.00;1676413;85;27343;-70
2022/07/19 10:51:34;;;;;;;6.92;3.58;;;;;;;35.37;26.09;100747.42;1676086;85;25767;-70
2022/07/19 10:54:06;;;;;;;13.43;3.17;;;;;;;35.24;26.05;100748.38;1673829;85;25440;-70
2022/07/19 10:56:39;;;;;;;5.83;3.30;;;;;;;35.11;26.52;100739.30;1672015;85;25902;-70
2022/07/19 10:59:12;;;;;;;7.20;2.92;;;;;;;35.31;27.12;100738.22;1672067;85;25638;-70
2022/07/19 11:02:00;;;;;;;6.62;3.62;;;;;;;35.67;26.83;100735.19;1672010;85;27913;-70
2022/07/19 11:04:28;;;;;;;5.03;3.00;;;;;;;36.03;26.14;100736.94;1671427;84;25550;-70
2022/07/19 11:07:22;;;;;;;5.15;3.50;;;;;;;35.95;25.13;100734.34;1672047;85;25577;-70
2022/07/19 11:09:59;;;;;;;6.45;3.45;;;;;;;35.74;25.84;100726.28;1644066;86;25634;-70
2022/07/19 11:12:36;;;;;;;6.53;3.42;;;;;;;35.65;24.67;100727.06;1657825;86;25534;-70
2022/07/19 11:15:09;;;;;;;5.42;3.25;;;;;;;35.80;25.77;100744.09;1657793;86;27401;-70
2022/07/19 11:17:36;;;;;;;4.28;2.60;;;;;;;35.75;25.56;100737.70;1657768;86;25531;-70
2022/07/19 11:20:11;;;;;;;6.28;2.62;;;;;;;35.79;25.89;100738.30;1657772;86;25606;-70
2022/07/19 11:22:44;;;;;;;4.35;2.60;;;;;;;36.18;25.76;100732.81;1657785;86;25658;-70
2022/07/19 11:25:13;;;;;;;4.90;3.10;;;;;;;36.55;25.78;100733.40;1657875;86;25570;-70
2022/07/19 11:27:45;;;;;;;3.60;3.10;;;;;;;36.54;24.57;100735.28;1657796;86;27402;-70